Terminal Aerodrome Forecast
Issued by NWS

Home | Current Version | Previous Version | Graphics & Text | Print | Product List | Glossary On
Versions: 1 2 3 4 5 6 7 8 9 10 11 12 13 14 15 16 17 18 19 20
489
FTUS43 KLSX 232320
TAFSUS
TAF
KSUS 232320Z 2400/2424 01005KT P6SM OVC010
     FM240600 01003KT 5SM BR BKN008 OVC012
     FM241500 35010KT P6SM OVC020
     FM241900 35010KT P6SM BKN035=

USA.gov is the U.S. government's official web portal to all federal, state and local government web resources and services.